createdAt,value
2018-02-27T00:01:07.803Z,1009.89
2018-02-27T00:02:22.051Z,1009.8
2018-02-27T00:03:35.865Z,1009.85
2018-02-27T00:04:50.183Z,1009.81
2018-02-27T00:06:04.671Z,1009.88
2018-02-27T00:07:18.444Z,1009.87
2018-02-27T00:08:32.928Z,1009.91
2018-02-27T00:09:47.275Z,1009.88
2018-02-27T00:11:01.028Z,1009.85
2018-02-27T00:12:15.243Z,1009.87
2018-02-27T00:13:29.528Z,1009.82
2018-02-27T00:14:43.756Z,1009.85
2018-02-27T00:15:58.545Z,1009.88
2018-02-27T00:17:12.068Z,1009.84
2018-02-27T00:18:26.318Z,1009.82
2018-02-27T00:19:40.308Z,1009.78
2018-02-27T00:20:54.521Z,1009.84
2018-02-27T00:22:09.044Z,1009.84
2018-02-27T00:23:22.810Z,1009.82
2018-02-27T00:24:36.797Z,1009.84
2018-02-27T00:25:50.798Z,1009.84
2018-02-27T00:27:04.543Z,1009.88
2018-02-27T00:28:18.078Z,1009.88
2018-02-27T00:29:32.084Z,1009.82
2018-02-27T00:30:46.091Z,1009.95
2018-02-27T00:32:00.090Z,1009.86
2018-02-27T00:33:13.847Z,1009.89
2018-02-27T00:34:27.634Z,1009.87
2018-02-27T00:35:41.385Z,1009.86
2018-02-27T00:36:55.143Z,1009.87
2018-02-27T00:38:09.539Z,1009.84
2018-02-27T00:39:23.581Z,1009.83
2018-02-27T00:40:37.364Z,1009.84
2018-02-27T00:41:51.120Z,1009.82
2018-02-27T00:43:04.928Z,1009.82
2018-02-27T00:44:18.896Z,1009.82
2018-02-27T00:45:32.878Z,1009.8
2018-02-27T00:46:47.157Z,1009.76
2018-02-27T00:48:01.161Z,1009.83
2018-02-27T00:49:15.179Z,1009.79
2018-02-27T00:50:28.886Z,1009.84
2018-02-27T00:51:43.367Z,1009.92
2018-02-27T00:52:57.676Z,1009.8
2018-02-27T00:54:12.147Z,1009.78
2018-02-27T00:55:26.149Z,1009.83
2018-02-27T00:56:40.357Z,1009.84
2018-02-27T00:57:54.361Z,1009.73
2018-02-27T00:59:08.865Z,1009.82
2018-02-27T01:00:23.364Z,1009.82
2018-02-27T01:01:37.848Z,1009.69
2018-02-27T01:02:52.576Z,1009.74
2018-02-27T01:04:06.305Z,1009.8
2018-02-27T01:05:20.547Z,1009.73
2018-02-27T01:06:34.270Z,1009.72
2018-02-27T01:07:48.284Z,1009.74
2018-02-27T01:09:02.081Z,1009.76
2018-02-27T01:10:16.339Z,1009.74
2018-02-27T01:11:30.512Z,1009.75
2018-02-27T01:12:45.250Z,1010.03
2018-02-27T01:13:59.514Z,1009.8
2018-02-27T01:15:13.994Z,1009.84
2018-02-27T01:16:27.966Z,1009.86
2018-02-27T01:17:41.775Z,1009.72
2018-02-27T01:18:56.005Z,1009.75
2018-02-27T01:20:10.013Z,1009.66
2018-02-27T01:21:24.255Z,1009.78
2018-02-27T01:22:38.498Z,1009.59
2018-02-27T01:23:53.102Z,1009.62
2018-02-27T01:25:06.837Z,1009.55
2018-02-27T01:26:21.344Z,1009.7
2018-02-27T01:27:36.071Z,1009.64
2018-02-27T01:28:50.539Z,1009.57
2018-02-27T01:30:04.608Z,1009.64
2018-02-27T01:31:18.853Z,1009.71
2018-02-27T01:32:32.568Z,1009.63
2018-02-27T01:33:47.290Z,1009.58
2018-02-27T01:35:01.532Z,1009.6
2018-02-27T01:36:16.064Z,1009.58
2018-02-27T01:37:30.273Z,1009.59
2018-02-27T01:38:44.736Z,1009.64
2018-02-27T01:39:59.205Z,1009.54
2018-02-27T01:41:13.470Z,1009.54
2018-02-27T01:42:27.210Z,1009.48
2018-02-27T01:43:41.470Z,1009.47
2018-02-27T01:44:55.799Z,1009.59
2018-02-27T01:46:09.810Z,1009.56
2018-02-27T01:47:23.559Z,1009.51
2018-02-27T01:48:37.779Z,1009.46
2018-02-27T01:49:51.516Z,1009.52
2018-02-27T01:51:05.508Z,1009.54
2018-02-27T01:52:19.528Z,1009.49
2018-02-27T01:53:33.059Z,1009.43
2018-02-27T01:54:47.365Z,1009.84
2018-02-27T01:56:02.078Z,1009.76
2018-02-27T01:57:16.084Z,1009.61
2018-02-27T01:58:30.094Z,1009.6
2018-02-27T01:59:44.813Z,1009.58
2018-02-27T02:00:59.600Z,1009.53
2018-02-27T02:02:14.152Z,1009.64
2018-02-27T02:03:28.932Z,1009.46
2018-02-27T02:04:42.949Z,1009.43
2018-02-27T02:05:56.709Z,1009.37
2018-02-27T02:07:11.440Z,1009.45
2018-02-27T02:08:25.920Z,1009.43
2018-02-27T02:09:39.652Z,1009.36
2018-02-27T02:10:53.612Z,1009.4
2018-02-27T02:12:07.343Z,1009.5
2018-02-27T02:13:21.328Z,1009.58
2018-02-27T02:14:35.324Z,1009.44
2018-02-27T02:15:49.820Z,1009.41
2018-02-27T02:17:04.536Z,1009.35
2018-02-27T02:18:18.409Z,1009.36
2018-02-27T02:19:32.963Z,1009.37
2018-02-27T02:20:47.258Z,1009.51
2018-02-27T02:22:01.279Z,1009.41
2018-02-27T02:23:14.795Z,1009.28
2018-02-27T02:24:29.274Z,1009.4
2018-02-27T02:25:44.020Z,1009.33
2018-02-27T02:26:58.021Z,1009.29
2018-02-27T02:28:12.257Z,1009.42
2018-02-27T02:29:26.513Z,1009.29
2018-02-27T02:30:40.270Z,1009.31
2018-02-27T02:31:55.054Z,1009.25
2018-02-27T02:33:09.271Z,1009.24
2018-02-27T02:34:23.550Z,1009.32
2018-02-27T02:35:37.817Z,1009.2
2018-02-27T02:36:51.810Z,1009.46
2018-02-27T02:38:06.130Z,1009.28
2018-02-27T02:39:20.734Z,1009.21
2018-02-27T02:40:35.224Z,1009.21
2018-02-27T02:41:48.959Z,1009.15
2018-02-27T02:43:02.739Z,1009.1
2018-02-27T02:44:17.261Z,1009.14
2018-02-27T02:45:31.751Z,1009
2018-02-27T02:46:45.742Z,1009.1
2018-02-27T02:47:59.954Z,1009.1
2018-02-27T02:50:43.367Z,1009.22
2018-02-27T02:51:57.858Z,1009.11
2018-02-27T02:53:11.907Z,1009.2
2018-02-27T02:54:25.403Z,1009.17
2018-02-27T02:55:39.427Z,1009.08
2018-02-27T02:56:53.973Z,1009.21
2018-02-27T02:58:07.988Z,1009.17
2018-02-27T02:59:22.144Z,1009.17
2018-02-27T03:00:36.412Z,1009.22
2018-02-27T03:01:50.703Z,1009.15
2018-02-27T03:03:04.947Z,1009.12
2018-02-27T03:04:19.752Z,1009.11
2018-02-27T03:05:34.020Z,1009.19
2018-02-27T03:06:48.494Z,1009.32
2018-02-27T03:08:02.461Z,1009.14
2018-02-27T03:09:16.767Z,1009.13
2018-02-27T03:10:30.819Z,1009.14
2018-02-27T03:11:45.080Z,1009.14
2018-02-27T03:12:59.580Z,1009.24
2018-02-27T03:14:14.045Z,1009.33
2018-02-27T03:15:28.615Z,1009.3
2018-02-27T03:16:42.854Z,1009.22
2018-02-27T03:17:57.321Z,1009.23
2018-02-27T03:19:11.323Z,1009.25
2018-02-27T03:20:26.053Z,1009.14
2018-02-27T03:21:40.853Z,1009.17
2018-02-27T03:22:55.101Z,1009.2
2018-02-27T03:24:09.223Z,1009.01
2018-02-27T03:25:23.470Z,1009.04
2018-02-27T03:26:37.453Z,1009.08
2018-02-27T03:27:52.472Z,1009.34
2018-02-27T03:29:06.249Z,1009.11
2018-02-27T03:30:20.735Z,1009.11
2018-02-27T03:31:35.021Z,1009.05
2018-02-27T03:32:49.004Z,1009.2
2018-02-27T03:34:03.077Z,1009.02
2018-02-27T03:35:17.333Z,1009.04
2018-02-27T03:36:31.790Z,1008.98
2018-02-27T03:37:45.782Z,1008.92
2018-02-27T03:39:00.270Z,1009.07
2018-02-27T03:40:14.244Z,1008.99
2018-02-27T03:41:28.441Z,1009.14
2018-02-27T03:42:42.147Z,1009.11
2018-02-27T03:43:56.098Z,1009.02
2018-02-27T03:45:10.314Z,1009.18
2018-02-27T03:46:24.601Z,1008.88
2018-02-27T03:47:38.818Z,1008.93
2018-02-27T03:48:52.805Z,1008.85
2018-02-27T03:50:06.568Z,1009
2018-02-27T03:51:21.046Z,1009
2018-02-27T03:52:35.272Z,1008.86
2018-02-27T03:53:49.003Z,1008.97
2018-02-27T03:55:03.239Z,1008.85
2018-02-27T03:56:17.493Z,1008.67
2018-02-27T03:57:31.843Z,1008.8
2018-02-27T03:58:46.124Z,1008.64
2018-02-27T03:59:59.902Z,1008.74
2018-02-27T04:01:14.441Z,1008.77
2018-02-27T04:02:28.907Z,1008.74
2018-02-27T04:03:42.667Z,1008.7
2018-02-27T04:04:57.440Z,1008.63
2018-02-27T04:06:11.956Z,1008.63
2018-02-27T04:07:25.700Z,1008.67
2018-02-27T04:08:40.174Z,1008.71
2018-02-27T04:09:54.897Z,1008.63
2018-02-27T04:11:09.127Z,1008.84
2018-02-27T04:12:23.155Z,1008.67
2018-02-27T04:13:37.131Z,1008.78
2018-02-27T04:14:51.605Z,1008.8
2018-02-27T04:16:05.857Z,1008.71
2018-02-27T04:17:20.453Z,1008.99
2018-02-27T04:18:34.704Z,1008.79
2018-02-27T04:19:48.951Z,1008.77
2018-02-27T04:21:02.738Z,1008.82
2018-02-27T04:22:16.519Z,1008.69
2018-02-27T04:23:30.587Z,1008.57
2018-02-27T04:24:44.841Z,1008.63
2018-02-27T04:25:58.592Z,1008.61
2018-02-27T04:27:12.413Z,1008.59
2018-02-27T04:28:25.933Z,1008.64
2018-02-27T04:29:40.981Z,1008.74
2018-02-27T04:30:55.102Z,1008.82
2018-02-27T04:32:08.910Z,1008.55
2018-02-27T04:33:23.325Z,1008.53
2018-02-27T04:34:37.656Z,1008.57
2018-02-27T04:35:51.444Z,1008.62
2018-02-27T04:37:05.283Z,1008.63
2018-02-27T04:40:33.200Z,1008.63
2018-02-27T04:41:47.956Z,1008.61
2018-02-27T04:43:02.224Z,1008.67
2018-02-27T04:44:16.375Z,1008.65
2018-02-27T04:45:30.409Z,1008.81
2018-02-27T04:46:44.229Z,1008.71
2018-02-27T04:47:58.771Z,1008.87
2018-02-27T04:49:12.556Z,1008.82
2018-02-27T04:50:26.590Z,1008.87
2018-02-27T04:51:41.061Z,1008.69
2018-02-27T04:52:55.065Z,1008.66
2018-02-27T04:54:09.372Z,1008.88
2018-02-27T04:55:23.454Z,1008.82
2018-02-27T04:56:37.243Z,1008.68
2018-02-27T04:57:51.499Z,1008.73
2018-02-27T04:59:05.263Z,1008.72
2018-02-27T05:00:19.480Z,1008.73
2018-02-27T05:01:33.480Z,1008.75
2018-02-27T05:02:47.982Z,1008.67
2018-02-27T05:04:02.357Z,1008.79
2018-02-27T05:05:17.107Z,1008.72
2018-02-27T05:06:31.135Z,1008.77
2018-02-27T05:07:45.880Z,1008.71
2018-02-27T05:09:00.088Z,1008.77
2018-02-27T05:10:14.555Z,1008.68
2018-02-27T05:11:28.044Z,1008.74
2018-02-27T05:12:42.348Z,1008.7
2018-02-27T05:13:56.153Z,1008.73
2018-02-27T05:15:09.978Z,1008.66
2018-02-27T05:16:24.497Z,1008.69
2018-02-27T05:17:38.041Z,1008.78
2018-02-27T05:18:52.161Z,1008.8
2018-02-27T05:20:06.671Z,1008.76
2018-02-27T05:21:20.917Z,1008.79
2018-02-27T05:22:35.377Z,1008.8
2018-02-27T05:23:49.126Z,1008.88
2018-02-27T05:25:03.438Z,1008.83
2018-02-27T05:26:17.226Z,1008.78
2018-02-27T05:27:31.208Z,1008.8
2018-02-27T05:28:45.459Z,1008.76
2018-02-27T05:29:59.209Z,1008.77
2018-02-27T05:31:13.061Z,1008.88
2018-02-27T05:32:27.063Z,1008.8
2018-02-27T05:33:41.288Z,1008.74
2018-02-27T05:34:55.067Z,1008.95
2018-02-27T05:36:09.304Z,1008.81
2018-02-27T05:37:23.979Z,1009.07
2018-02-27T05:38:37.728Z,1008.7
2018-02-27T05:39:51.965Z,1008.79
2018-02-27T05:41:06.202Z,1008.82
2018-02-27T05:42:19.718Z,1008.72
2018-02-27T05:43:34.286Z,1008.84
2018-02-27T05:44:48.549Z,1009.02
2018-02-27T05:46:02.280Z,1008.84
2018-02-27T05:47:16.528Z,1008.96
2018-02-27T05:48:30.512Z,1008.81
2018-02-27T05:49:45.070Z,1008.83
2018-02-27T05:50:58.849Z,1008.75
2018-02-27T05:52:13.132Z,1008.95
2018-02-27T05:53:27.152Z,1008.91
2018-02-27T05:54:41.187Z,1008.85
2018-02-27T05:55:55.495Z,1008.92
2018-02-27T05:57:09.779Z,1008.73
2018-02-27T05:58:23.807Z,1008.8
2018-02-27T05:59:37.361Z,1008.94
2018-02-27T06:00:52.311Z,1008.75
2018-02-27T06:02:06.387Z,1008.72
2018-02-27T06:03:20.634Z,1008.89
2018-02-27T06:04:34.673Z,1008.79
2018-02-27T06:05:48.722Z,1008.71
2018-02-27T06:07:02.264Z,1009.01
2018-02-27T06:08:17.092Z,1008.79
2018-02-27T06:09:30.880Z,1008.66
2018-02-27T06:10:45.266Z,1008.78
2018-02-27T06:11:59.535Z,1008.73
2018-02-27T06:13:13.816Z,1008.74
2018-02-27T06:14:28.405Z,1008.85
2018-02-27T06:15:42.394Z,1008.78
2018-02-27T06:16:56.463Z,1008.84
2018-02-27T06:18:10.742Z,1008.79
2018-02-27T06:19:24.773Z,1008.77
2018-02-27T06:20:39.113Z,1008.7
2018-02-27T06:21:53.395Z,1008.69
2018-02-27T06:24:36.102Z,1008.8
2018-02-27T06:25:50.332Z,1008.84
2018-02-27T06:27:04.385Z,1008.82
2018-02-27T06:28:19.075Z,1008.98
2018-02-27T06:29:32.848Z,1008.9
2018-02-27T06:30:46.654Z,1008.83
2018-02-27T06:32:00.653Z,1008.99
2018-02-27T06:33:15.241Z,1008.9
2018-02-27T06:34:29.276Z,1008.91
2018-02-27T06:35:43.535Z,1008.78
2018-02-27T06:36:57.778Z,1008.77
2018-02-27T06:38:12.245Z,1008.83
2018-02-27T06:39:27.067Z,1008.77
2018-02-27T06:40:41.589Z,1008.84
2018-02-27T06:41:56.089Z,1008.9
2018-02-27T06:43:10.234Z,1008.93
2018-02-27T06:44:24.466Z,1008.83
2018-02-27T06:45:39.037Z,1008.88
2018-02-27T06:46:53.506Z,1008.94
2018-02-27T06:48:08.021Z,1008.99
2018-02-27T06:49:22.069Z,1008.98
2018-02-27T06:50:36.636Z,1009.08
2018-02-27T06:51:51.196Z,1008.97
2018-02-27T06:53:04.989Z,1009.02
2018-02-27T06:54:19.253Z,1008.93
2018-02-27T06:55:33.006Z,1008.86
2018-02-27T06:56:47.028Z,1009.01
2018-02-27T06:58:01.341Z,1008.89
2018-02-27T06:59:15.084Z,1008.9
2018-02-27T07:00:29.077Z,1008.88
2018-02-27T07:01:43.100Z,1008.9
2018-02-27T07:02:56.830Z,1009.3
2018-02-27T07:04:10.844Z,1008.93
2018-02-27T07:05:25.095Z,1008.88
2018-02-27T07:06:39.367Z,1008.91
2018-02-27T07:07:53.369Z,1008.84
2018-02-27T07:09:07.604Z,1008.94
2018-02-27T07:10:22.392Z,1008.85
2018-02-27T07:11:36.856Z,1008.92
2018-02-27T07:12:50.853Z,1008.86
2018-02-27T07:14:04.872Z,1008.91
2018-02-27T07:15:18.866Z,1009.03
2018-02-27T07:16:33.242Z,1008.93
2018-02-27T07:17:47.028Z,1009.06
2018-02-27T07:19:01.085Z,1009.39
2018-02-27T07:20:15.364Z,1009.06
2018-02-27T07:21:29.419Z,1009.14
2018-02-27T07:22:43.687Z,1009.08
2018-02-27T07:23:57.941Z,1009.02
2018-02-27T07:25:11.941Z,1008.9
2018-02-27T07:26:26.682Z,1009
2018-02-27T07:27:41.182Z,1009.01
2018-02-27T07:28:55.720Z,1009.35
2018-02-27T07:30:09.833Z,1009.07
2018-02-27T07:31:24.093Z,1009.12
2018-02-27T07:32:37.594Z,1009.07
2018-02-27T07:33:51.312Z,1009.03
2018-02-27T07:35:05.634Z,1008.95
2018-02-27T07:36:19.760Z,1009
2018-02-27T07:37:34.271Z,1009.08
2018-02-27T07:38:48.729Z,1009.04
2018-02-27T07:40:02.232Z,1009.06
2018-02-27T07:41:17.018Z,1009.14
2018-02-27T07:42:31.262Z,1009.09
2018-02-27T07:43:45.311Z,1009.08
2018-02-27T07:44:59.529Z,1009.06
2018-02-27T07:46:13.306Z,1008.97
2018-02-27T07:47:28.088Z,1009.12
2018-02-27T07:48:42.331Z,1009.13
2018-02-27T07:49:56.940Z,1009.18
2018-02-27T07:51:11.400Z,1009.32
2018-02-27T07:52:25.933Z,1009.15
2018-02-27T07:53:40.329Z,1009.12
2018-02-27T07:54:54.430Z,1009.29
2018-02-27T07:56:08.725Z,1009.24
2018-02-27T07:57:22.474Z,1009.23
2018-02-27T07:58:36.932Z,1009.39
2018-02-27T07:59:51.225Z,1009.3
2018-02-27T08:01:05.463Z,1009.16
2018-02-27T08:02:19.249Z,1009.2
2018-02-27T08:03:33.243Z,1009.13
2018-02-27T08:04:47.701Z,1008.94
2018-02-27T08:06:02.292Z,1009.06
2018-02-27T08:07:16.822Z,1008.98
2018-02-27T08:08:30.812Z,1009.26
2018-02-27T08:09:45.089Z,1009.37
2018-02-27T08:10:59.542Z,1009.18
2018-02-27T08:12:13.594Z,1009.04
2018-02-27T08:13:27.846Z,1009.05
2018-02-27T08:14:42.322Z,1008.96
2018-02-27T08:15:56.101Z,1009.06
2018-02-27T08:17:10.375Z,1008.95
2018-02-27T08:18:24.183Z,1009.07
2018-02-27T08:19:38.189Z,1009.06
2018-02-27T08:20:51.947Z,1009.09
2018-02-27T08:22:06.708Z,1008.95
2018-02-27T08:23:20.820Z,1009.11
2018-02-27T08:24:35.123Z,1009.06
2018-02-27T08:25:49.633Z,1009.12
2018-02-27T08:27:03.652Z,1009.03
2018-02-27T08:28:17.404Z,1008.92
2018-02-27T08:29:31.663Z,1009.05
2018-02-27T08:30:46.031Z,1008.89
2018-02-27T08:32:00.291Z,1008.99
2018-02-27T08:33:14.296Z,1008.92
2018-02-27T08:34:28.587Z,1008.83
2018-02-27T08:35:42.856Z,1008.9
2018-02-27T08:36:57.454Z,1009.2
2018-02-27T08:38:11.476Z,1008.91
2018-02-27T08:39:26.054Z,1008.9
2018-02-27T08:40:40.078Z,1009.04
2018-02-27T08:41:54.572Z,1008.88
2018-02-27T08:43:08.635Z,1008.94
2018-02-27T08:44:22.893Z,1008.9
2018-02-27T08:45:36.678Z,1008.88
2018-02-27T08:46:50.903Z,1008.83
2018-02-27T08:48:04.931Z,1009.03
2018-02-27T08:49:18.672Z,1008.89
2018-02-27T08:50:32.679Z,1008.94
2018-02-27T08:51:46.960Z,1008.95
2018-02-27T08:53:00.999Z,1008.9
2018-02-27T08:54:14.751Z,1008.86
2018-02-27T08:55:29.498Z,1008.79
2018-02-27T08:56:43.884Z,1008.84
2018-02-27T08:57:58.194Z,1008.83
2018-02-27T08:59:11.741Z,1008.84
2018-02-27T09:00:26.010Z,1008.91
2018-02-27T09:01:40.517Z,1008.83
2018-02-27T09:02:55.364Z,1008.8
2018-02-27T09:04:09.139Z,1008.72
2018-02-27T09:05:22.927Z,1008.66
2018-02-27T09:06:37.446Z,1008.74
2018-02-27T09:07:52.240Z,1008.73
2018-02-27T09:09:06.268Z,1008.76
2018-02-27T09:10:20.046Z,1008.76
2018-02-27T09:11:34.078Z,1008.82
2018-02-27T09:12:48.099Z,1008.85
2018-02-27T09:14:02.702Z,1008.72
2018-02-27T09:15:16.407Z,1008.82
2018-02-27T09:16:30.399Z,1008.93
2018-02-27T09:17:44.406Z,1008.77
2018-02-27T09:18:57.913Z,1008.78
2018-02-27T09:20:12.824Z,1008.72
2018-02-27T09:21:27.069Z,1008.6
2018-02-27T09:22:41.331Z,1008.66
2018-02-27T09:23:55.129Z,1008.62
2018-02-27T09:25:09.384Z,1008.69
2018-02-27T09:26:23.493Z,1008.67
2018-02-27T09:27:37.263Z,1008.7
2018-02-27T09:28:50.987Z,1008.82
2018-02-27T09:30:04.880Z,1008.68
2018-02-27T09:31:18.990Z,1008.56
2018-02-27T09:32:34.048Z,1008.51
2018-02-27T09:33:47.810Z,1008.5
2018-02-27T09:35:02.349Z,1008.55
2018-02-27T09:36:16.618Z,1008.44
2018-02-27T09:37:30.709Z,1008.61
2018-02-27T09:38:45.145Z,1008.49
2018-02-27T09:40:00.222Z,1008.48
2018-02-27T09:41:14.465Z,1008.44
2018-02-27T09:42:28.740Z,1008.6
2018-02-27T09:43:42.260Z,1008.51
2018-02-27T09:44:56.581Z,1008.58
2018-02-27T09:46:10.581Z,1008.58
2018-02-27T09:47:25.079Z,1008.63
2018-02-27T09:48:38.840Z,1008.59
2018-02-27T09:49:52.582Z,1008.5
2018-02-27T09:51:06.895Z,1008.48
2018-02-27T09:52:21.128Z,1008.48
2018-02-27T09:53:35.600Z,1008.5
2018-02-27T09:54:49.370Z,1008.41
2018-02-27T09:56:03.635Z,1008.57
2018-02-27T09:57:18.404Z,1008.39
2018-02-27T09:58:32.635Z,1008.37
2018-02-27T09:59:46.999Z,1008.36
2018-02-27T10:01:01.029Z,1008.38
2018-02-27T10:02:15.294Z,1008.46
2018-02-27T10:03:29.644Z,1008.42
2018-02-27T10:06:13.332Z,1008.52
2018-02-27T10:07:27.936Z,1008.49
2018-02-27T10:08:42.248Z,1008.51
2018-02-27T10:09:56.494Z,1008.61
2018-02-27T10:11:10.260Z,1008.5
2018-02-27T10:12:24.534Z,1008.47
2018-02-27T10:13:38.598Z,1008.53
2018-02-27T10:14:53.360Z,1008.49
2018-02-27T10:16:07.415Z,1008.43
2018-02-27T10:17:21.684Z,1008.4
2018-02-27T10:18:35.473Z,1008.57
2018-02-27T10:19:49.976Z,1008.47
2018-02-27T10:21:04.322Z,1008.49
2018-02-27T10:22:18.356Z,1008.41
2018-02-27T10:23:32.590Z,1008.57
2018-02-27T10:24:46.835Z,1008.57
2018-02-27T10:26:01.604Z,1008.45
2018-02-27T10:27:15.174Z,1008.2
2018-02-27T10:28:29.580Z,1008.26
2018-02-27T10:29:43.348Z,1008.26
2018-02-27T10:30:57.610Z,1008.46
2018-02-27T10:32:12.193Z,1008.22
2018-02-27T10:33:27.037Z,1008.23
2018-02-27T10:34:41.588Z,1008.18
2018-02-27T10:35:55.986Z,1008.36
2018-02-27T10:37:10.365Z,1008.28
2018-02-27T10:38:25.112Z,1008.19
2018-02-27T10:39:39.436Z,1008.4
2018-02-27T10:40:53.959Z,1008.3
2018-02-27T10:42:07.947Z,1008.31
2018-02-27T10:43:21.986Z,1008.21
2018-02-27T10:44:35.748Z,1008.25
2018-02-27T10:45:50.521Z,1008.25
2018-02-27T10:47:04.509Z,1008.27
2018-02-27T10:48:19.251Z,1008.15
2018-02-27T10:49:33.516Z,1008.1
2018-02-27T10:50:47.498Z,1008.4
2018-02-27T10:52:02.292Z,1008.17
2018-02-27T10:53:16.566Z,1008.28
2018-02-27T10:54:31.057Z,1008.22
2018-02-27T10:55:45.093Z,1008.19
2018-02-27T10:56:59.559Z,1008.18
2018-02-27T10:58:14.501Z,1008.08
2018-02-27T10:59:28.755Z,1008.07
2018-02-27T11:00:43.081Z,1008.05
2018-02-27T11:01:57.335Z,1007.98
2018-02-27T11:03:11.847Z,1008.05
2018-02-27T11:04:25.918Z,1008.09
2018-02-27T11:05:39.437Z,1008.15
2018-02-27T11:06:54.159Z,1008.19
2018-02-27T11:08:08.938Z,1008.26
2018-02-27T11:09:22.838Z,1008.14
2018-02-27T11:10:36.915Z,1007.9
2018-02-27T11:11:51.673Z,1007.95
2018-02-27T11:13:06.194Z,1007.88
2018-02-27T11:14:20.229Z,1007.93
2018-02-27T11:15:34.701Z,1007.85
2018-02-27T11:16:49.247Z,1007.9
2018-02-27T11:18:03.024Z,1008
2018-02-27T11:19:17.497Z,1007.93
2018-02-27T11:20:31.739Z,1008.02
2018-02-27T11:21:46.480Z,1007.84
2018-02-27T11:23:00.991Z,1007.84
2018-02-27T11:24:15.472Z,1008.03
2018-02-27T11:25:29.705Z,1007.89
2018-02-27T11:26:43.937Z,1007.82
2018-02-27T11:27:57.964Z,1007.97
2018-02-27T11:29:12.267Z,1007.8
2018-02-27T11:30:26.019Z,1007.74
2018-02-27T11:31:40.332Z,1007.76
2018-02-27T11:32:54.574Z,1007.67
2018-02-27T11:34:08.845Z,1007.96
2018-02-27T11:35:23.164Z,1008
2018-02-27T11:36:36.403Z,1007.77
2018-02-27T11:37:49.685Z,1007.79
2018-02-27T11:39:03.750Z,1007.77
2018-02-27T11:40:18.228Z,1007.82
2018-02-27T11:41:32.724Z,1007.68
2018-02-27T11:42:46.613Z,1007.81
2018-02-27T11:44:01.008Z,1007.82
2018-02-27T11:45:15.011Z,1007.83
2018-02-27T11:46:29.041Z,1007.7
2018-02-27T11:47:43.604Z,1007.87
2018-02-27T11:48:57.907Z,1007.71
2018-02-27T11:50:12.671Z,1007.63
2018-02-27T11:51:27.483Z,1007.72
2018-02-27T11:52:41.234Z,1007.75
2018-02-27T11:53:55.538Z,1007.87
2018-02-27T11:55:09.320Z,1007.66
2018-02-27T11:56:24.295Z,1007.5
2018-02-27T11:57:38.581Z,1007.66
2018-02-27T11:58:52.626Z,1007.61
2018-02-27T12:00:06.956Z,1007.52
2018-02-27T12:01:21.266Z,1007.43
2018-02-27T12:02:35.069Z,1007.47
2018-02-27T12:03:49.169Z,1007.41
2018-02-27T12:05:03.675Z,1007.42
2018-02-27T12:06:18.547Z,1007.45
2018-02-27T12:07:32.585Z,1007.44
2018-02-27T12:08:46.583Z,1007.27
2018-02-27T12:10:00.835Z,1007.38
2018-02-27T12:11:15.134Z,1007.39
2018-02-27T12:12:29.406Z,1007.65
2018-02-27T12:13:43.487Z,1007.51
2018-02-27T12:14:57.486Z,1007.46
2018-02-27T12:16:12.180Z,1007.39
2018-02-27T12:17:26.451Z,1007.29
2018-02-27T12:18:41.242Z,1007.5
2018-02-27T12:19:55.498Z,1007.23
2018-02-27T12:21:09.048Z,1007.19
2018-02-27T12:22:22.877Z,1007.24
2018-02-27T12:23:37.198Z,1007.23
2018-02-27T12:24:51.778Z,1007.21
2018-02-27T12:26:06.057Z,1007.27
2018-02-27T12:27:20.581Z,1007.24
2018-02-27T12:28:34.877Z,1007.49
2018-02-27T12:29:49.156Z,1007.49
2018-02-27T12:31:03.964Z,1007.11
2018-02-27T12:32:18.444Z,1007.14
2018-02-27T12:33:32.983Z,1007.1
2018-02-27T12:34:47.503Z,1007.15
2018-02-27T12:36:01.965Z,1007.24
2018-02-27T12:37:16.791Z,1007.17
2018-02-27T12:38:31.089Z,1007.32
2018-02-27T12:39:45.119Z,1007.17
2018-02-27T12:40:59.376Z,1007.16
2018-02-27T12:42:13.385Z,1007.11
2018-02-27T12:43:28.185Z,1007.26
2018-02-27T12:44:42.711Z,1007.08
2018-02-27T12:45:57.267Z,1007.26
2018-02-27T12:47:11.793Z,1007.18
2018-02-27T12:48:25.839Z,1007.3
2018-02-27T12:49:41.023Z,1007.03
2018-02-27T12:50:55.060Z,1006.94
2018-02-27T12:52:09.334Z,1006.93
2018-02-27T12:53:23.615Z,1006.97
2018-02-27T12:54:37.924Z,1006.99
2018-02-27T12:55:52.291Z,1007
2018-02-27T12:57:06.328Z,1007.05
2018-02-27T12:58:19.941Z,1006.91
2018-02-27T12:59:34.761Z,1006.85
2018-02-27T13:00:48.788Z,1006.82
2018-02-27T13:02:03.596Z,1006.79
2018-02-27T13:03:18.094Z,1006.85
2018-02-27T13:04:32.410Z,1006.78
2018-02-27T13:05:46.720Z,1006.94
2018-02-27T13:07:01.218Z,1006.76
2018-02-27T13:08:15.796Z,1006.84
2018-02-27T13:09:30.315Z,1006.78
2018-02-27T13:10:44.336Z,1006.78
2018-02-27T13:11:58.103Z,1006.95
2018-02-27T13:13:12.702Z,1006.81
2018-02-27T13:14:26.326Z,1006.99
2018-02-27T13:15:40.244Z,1006.79
2018-02-27T13:16:54.572Z,1006.68
2018-02-27T13:18:09.307Z,1006.7
2018-02-27T13:19:23.642Z,1006.67
2018-02-27T13:20:38.348Z,1006.55
2018-02-27T13:21:52.710Z,1006.58
2018-02-27T13:23:07.567Z,1006.66
2018-02-27T13:24:22.096Z,1006.63
2018-02-27T13:25:36.517Z,1006.61
2018-02-27T13:26:51.380Z,1006.53
2018-02-27T13:28:05.437Z,1006.56
2018-02-27T13:29:19.717Z,1006.54
2018-02-27T13:30:33.947Z,1006.49
2018-02-27T13:31:48.007Z,1006.63
2018-02-27T13:33:02.572Z,1006.55
2018-02-27T13:34:17.079Z,1006.51
2018-02-27T13:35:31.094Z,1006.55
2018-02-27T13:36:45.153Z,1006.5
2018-02-27T13:37:59.205Z,1006.51
2018-02-27T13:39:13.542Z,1006.57
2018-02-27T13:40:27.300Z,1006.56
2018-02-27T13:41:41.845Z,1006.48
2018-02-27T13:42:56.479Z,1006.57
2018-02-27T13:44:11.003Z,1006.44
2018-02-27T13:45:25.570Z,1006.41
2018-02-27T13:46:39.613Z,1006.58
2018-02-27T13:47:53.131Z,1006.52
2018-02-27T13:49:06.754Z,1006.55
2018-02-27T13:50:28.101Z,1006.45
2018-02-27T13:51:42.411Z,1006.41
2018-02-27T13:52:56.866Z,1006.39
2018-02-27T13:54:11.159Z,1006.45
2018-02-27T13:55:24.935Z,1006.31
2018-02-27T13:56:39.316Z,1006.52
2018-02-27T13:57:53.103Z,1006.37
2018-02-27T13:59:07.725Z,1006.23
2018-02-27T14:00:21.801Z,1006.2
2018-02-27T14:01:35.791Z,1006.13
2018-02-27T14:02:50.070Z,1006.24
2018-02-27T14:04:05.128Z,1006.19
2018-02-27T14:05:19.364Z,1006.37
2018-02-27T14:06:33.646Z,1006.55
2018-02-27T14:07:46.916Z,1006.46
2018-02-27T14:09:00.691Z,1006.38
2018-02-27T14:10:14.218Z,1006.19
2018-02-27T14:11:28.462Z,1006.52
2018-02-27T14:12:42.445Z,1006.31
2018-02-27T14:13:56.942Z,1006.28
2018-02-27T14:15:10.959Z,1006.3
2018-02-27T14:16:25.536Z,1006.18
2018-02-27T14:17:39.547Z,1006.15
2018-02-27T14:18:54.038Z,1006.39
2018-02-27T14:20:08.523Z,1006.09
2018-02-27T14:21:23.068Z,1006.25
2018-02-27T14:22:37.112Z,1006.18
2018-02-27T14:23:51.348Z,1006.29
2018-02-27T14:25:05.340Z,1006.19
2018-02-27T14:26:20.133Z,1006.08
2018-02-27T14:27:34.508Z,1006.21
2018-02-27T14:28:48.829Z,1006.16
2018-02-27T14:30:03.218Z,1006.18
2018-02-27T14:31:17.490Z,1006.33
2018-02-27T14:32:31.577Z,1006.23
2018-02-27T14:33:45.701Z,1006.19
2018-02-27T14:34:59.980Z,1006.03
2018-02-27T14:36:14.262Z,1006.08
2018-02-27T14:37:28.327Z,1005.98
2018-02-27T14:38:43.110Z,1006.29
2018-02-27T14:39:57.155Z,1006.21
2018-02-27T14:41:11.422Z,1006.14
2018-02-27T14:42:25.903Z,1005.94
2018-02-27T14:43:39.954Z,1006.08
2018-02-27T14:44:54.487Z,1006.14
2018-02-27T14:46:08.301Z,1006.18
2018-02-27T14:47:22.621Z,1005.94
2018-02-27T14:48:36.656Z,1005.87
2018-02-27T14:49:50.746Z,1006.07
2018-02-27T14:51:05.069Z,1005.92
2018-02-27T14:52:19.332Z,1006.02
2018-02-27T14:53:33.607Z,1006.08
2018-02-27T14:54:47.917Z,1006.03
2018-02-27T14:56:01.968Z,1005.9
2018-02-27T14:57:16.005Z,1005.98
2018-02-27T14:58:29.800Z,1006.03
2018-02-27T14:59:43.354Z,1006
2018-02-27T15:00:57.393Z,1006.2
2018-02-27T15:02:11.452Z,1006.15
2018-02-27T15:03:25.657Z,1005.98
2018-02-27T15:04:39.655Z,1005.85
2018-02-27T15:05:53.475Z,1005.9
2018-02-27T15:07:07.482Z,1005.9
2018-02-27T15:08:22.020Z,1005.87